Terminal Aerodrome Forecast
Issued by NWS

Home | Current Version | Previous Version | Text Only | Print | Product List | Glossary On
Versions: 1 2 3 4 5 6 7 8 9 10 11 12
000
FTUS42 TJSJ 010547
TAFJPS
TAF
TJPS 010547Z 0106/0206 09007KT P6SM FEW030 SCT060
     FM011200 12012KT P6SM VCSH SCT025 SCT050
     FM011730 14014G19KT P6SM VCTS SCT025CB BKN050
     FM012300 10010KT P6SM -RA SCT030 BKN060 BKN120=

USA.gov is the U.S. government's official web portal to all federal, state and local government web resources and services.